Terminal Aerodrome Forecast
Issued by NWS

Home | Current Version | Previous Version | Text Only | Print | Product List | Glossary On
Versions: 1 2 3 4 5 6 7 8 9 10 11 12 13 14 15 16 17 18 19
569
FTUS41 KGYX 212337
TAFAUG
TAF
KAUG 212337Z 2200/2224 28004KT P6SM FEW060
      TEMPO 2209/2211 5SM BR
     FM221700 27008KT P6SM BKN250=

USA.gov is the U.S. government's official web portal to all federal, state and local government web resources and services.